sensor_id;sensor_type;location;lat;lon;timestamp;pressure;altitude;pressure_sealevel;temperature;humidity
46724;BME280;32463;48.298;11.620;2022-10-16T00:01:26;96342.50;;;11.18;100.00
46724;BME280;32463;48.298;11.620;2022-10-16T00:03:52;96343.31;;;11.18;100.00
46724;BME280;32463;48.298;11.620;2022-10-16T00:06:20;96349.16;;;11.12;100.00
46724;BME280;32463;48.298;11.620;2022-10-16T00:08:48;96355.94;;;11.05;100.00
46724;BME280;32463;48.298;11.620;2022-10-16T00:11:20;96355.66;;;11.00;100.00
46724;BME280;32463;48.298;11.620;2022-10-16T00:13:49;96353.38;;;10.97;100.00
46724;BME280;32463;48.298;11.620;2022-10-16T00:16:17;96355.28;;;10.87;100.00
46724;BME280;32463;48.298;11.620;2022-10-16T00:18:44;96352.03;;;10.85;100.00
46724;BME280;32463;48.298;11.620;2022-10-16T00:21:17;96353.97;;;10.83;100.00
46724;BME280;32463;48.298;11.620;2022-10-16T00:23:44;96354.16;;;10.89;100.00
46724;BME280;32463;48.298;11.620;2022-10-16T00:26:14;96356.91;;;10.88;100.00
46724;BME280;32463;48.298;11.620;2022-10-16T00:28:41;96339.41;;;11.06;100.00
46724;BME280;32463;48.298;11.620;2022-10-16T00:31:10;96334.91;;;11.24;100.00
46724;BME280;32463;48.298;11.620;2022-10-16T00:33:38;96344.94;;;11.35;100.00
46724;BME280;32463;48.298;11.620;2022-10-16T00:36:06;96334.38;;;11.45;100.00
46724;BME280;32463;48.298;11.620;2022-10-16T00:38:33;96332.94;;;11.51;100.00
46724;BME280;32463;48.298;11.620;2022-10-16T00:41:00;96335.34;;;11.52;100.00
46724;BME280;32463;48.298;11.620;2022-10-16T00:48:46;96347.53;;;11.43;100.00
46724;BME280;32463;48.298;11.620;2022-10-16T00:51:15;96354.81;;;11.40;100.00
46724;BME280;32463;48.298;11.620;2022-10-16T00:53:41;96357.41;;;11.40;100.00
46724;BME280;32463;48.298;11.620;2022-10-16T00:56:08;96361.47;;;11.42;100.00
46724;BME280;32463;48.298;11.620;2022-10-16T00:58:34;96368.44;;;11.34;100.00
46724;BME280;32463;48.298;11.620;2022-10-16T01:01:01;96363.94;;;11.28;100.00
46724;BME280;32463;48.298;11.620;2022-10-16T01:03:35;96366.69;;;11.26;100.00
46724;BME280;32463;48.298;11.620;2022-10-16T01:06:17;96368.63;;;11.24;100.00
46724;BME280;32463;48.298;11.620;2022-10-16T01:08:55;96370.56;;;11.22;100.00
46724;BME280;32463;48.298;11.620;2022-10-16T01:11:33;96362.13;;;11.20;100.00
46724;BME280;32463;48.298;11.620;2022-10-16T01:14:10;96368.63;;;11.16;100.00
46724;BME280;32463;48.298;11.620;2022-10-16T01:16:44;96371.69;;;11.11;100.00
46724;BME280;32463;48.298;11.620;2022-10-16T01:22:03;96372.47;;;11.04;100.00
46724;BME280;32463;48.298;11.620;2022-10-16T01:24:40;96379.63;;;11.02;100.00
46724;BME280;32463;48.298;11.620;2022-10-16T01:27:10;96377.03;;;10.94;100.00
46724;BME280;32463;48.298;11.620;2022-10-16T01:29:56;96379.28;;;10.89;100.00
46724;BME280;32463;48.298;11.620;2022-10-16T01:32:36;96380.56;;;10.85;100.00
46724;BME280;32463;48.298;11.620;2022-10-16T01:35:15;96374.41;;;10.86;100.00
46724;BME280;32463;48.298;11.620;2022-10-16T01:38:36;96370.69;;;10.88;100.00
46724;BME280;32463;48.298;11.620;2022-10-16T01:40:38;96366.97;;;10.91;100.00
46724;BME280;32463;48.298;11.620;2022-10-16T01:43:08;96360.84;;;11.00;100.00
46724;BME280;32463;48.298;11.620;2022-10-16T01:45:37;96370.84;;;11.03;100.00
46724;BME280;32463;48.298;11.620;2022-10-16T01:48:05;96370.69;;;11.04;100.00
46724;BME280;32463;48.298;11.620;2022-10-16T01:50:37;96365.34;;;11.06;100.00
46724;BME280;32463;48.298;11.620;2022-10-16T01:53:06;96370.88;;;11.11;100.00
46724;BME280;32463;48.298;11.620;2022-10-16T01:55:36;96367.66;;;11.17;100.00
46724;BME280;32463;48.298;11.620;2022-10-16T01:58:05;96375.75;;;11.22;100.00
46724;BME280;32463;48.298;11.620;2022-10-16T02:00:36;96377.38;;;11.23;100.00
46724;BME280;32463;48.298;11.620;2022-10-16T02:03:04;96363.75;;;11.21;100.00
46724;BME280;32463;48.298;11.620;2022-10-16T02:05:40;96359.22;;;11.15;100.00
46724;BME280;32463;48.298;11.620;2022-10-16T02:08:08;96346.56;;;11.12;100.00
46724;BME280;32463;48.298;11.620;2022-10-16T02:10:35;96340.72;;;11.10;100.00
46724;BME280;32463;48.298;11.620;2022-10-16T02:13:22;96355.78;;;11.06;100.00
46724;BME280;32463;48.298;11.620;2022-10-16T02:15:49;96357.25;;;11.01;100.00
46724;BME280;32463;48.298;11.620;2022-10-16T02:18:17;96362.13;;;10.96;100.00
46724;BME280;32463;48.298;11.620;2022-10-16T02:23:42;96377.97;;;10.85;100.00
46724;BME280;32463;48.298;11.620;2022-10-16T02:26:14;96363.34;;;10.75;100.00
46724;BME280;32463;48.298;11.620;2022-10-16T02:28:47;96366.44;;;10.63;100.00
46724;BME280;32463;48.298;11.620;2022-10-16T02:31:20;96356.22;;;10.61;100.00
46724;BME280;32463;48.298;11.620;2022-10-16T02:33:50;96367.50;;;10.52;100.00
46724;BME280;32463;48.298;11.620;2022-10-16T02:36:19;96370.59;;;10.56;100.00
46724;BME280;32463;48.298;11.620;2022-10-16T02:38:46;96374.47;;;10.52;100.00
46724;BME280;32463;48.298;11.620;2022-10-16T02:41:13;96367.66;;;10.51;100.00
46724;BME280;32463;48.298;11.620;2022-10-16T02:43:40;96378.88;;;10.59;100.00
46724;BME280;32463;48.298;11.620;2022-10-16T02:46:06;96388.63;;;10.65;100.00
46724;BME280;32463;48.298;11.620;2022-10-16T02:48:33;96377.94;;;10.68;100.00
46724;BME280;32463;48.298;11.620;2022-10-16T02:51:00;96381.81;;;10.72;100.00
46724;BME280;32463;48.298;11.620;2022-10-16T02:53:27;96378.91;;;10.75;100.00
46724;BME280;32463;48.298;11.620;2022-10-16T02:55:53;96367.56;;;10.76;100.00
46724;BME280;32463;48.298;11.620;2022-10-16T02:58:20;96371.78;;;10.77;100.00
46724;BME280;32463;48.298;11.620;2022-10-16T03:00:46;96376.97;;;10.77;100.00
46724;BME280;32463;48.298;11.620;2022-10-16T03:03:13;96375.53;;;10.83;100.00
46724;BME280;32463;48.298;11.620;2022-10-16T03:05:39;96386.88;;;10.82;100.00
46724;BME280;32463;48.298;11.620;2022-10-16T03:08:06;96395.59;;;10.73;100.00
46724;BME280;32463;48.298;11.620;2022-10-16T03:10:32;96390.56;;;10.63;100.00
46724;BME280;32463;48.298;11.620;2022-10-16T03:12:59;96394.44;;;10.59;100.00
46724;BME280;32463;48.298;11.620;2022-10-16T03:15:26;96385.00;;;10.50;100.00
46724;BME280;32463;48.298;11.620;2022-10-16T03:17:53;96375.91;;;10.38;100.00
46724;BME280;32463;48.298;11.620;2022-10-16T03:20:19;96373.16;;;10.39;100.00
46724;BME280;32463;48.298;11.620;2022-10-16T03:22:46;96388.22;;;10.44;100.00
46724;BME280;32463;48.298;11.620;2022-10-16T03:25:12;96396.00;;;10.44;100.00
46724;BME280;32463;48.298;11.620;2022-10-16T03:27:39;96391.63;;;10.44;100.00
46724;BME280;32463;48.298;11.620;2022-10-16T03:30:06;96388.38;;;10.42;100.00
46724;BME280;32463;48.298;11.620;2022-10-16T03:32:32;96385.63;;;10.44;100.00
46724;BME280;32463;48.298;11.620;2022-10-16T03:34:59;96383.06;;;10.52;100.00
46724;BME280;32463;48.298;11.620;2022-10-16T03:37:25;96387.28;;;10.53;100.00
46724;BME280;32463;48.298;11.620;2022-10-16T03:39:52;96379.19;;;10.56;100.00
46724;BME280;32463;48.298;11.620;2022-10-16T03:42:18;96378.56;;;10.62;100.00
46724;BME280;32463;48.298;11.620;2022-10-16T03:44:45;96386.69;;;10.67;100.00
46724;BME280;32463;48.298;11.620;2022-10-16T03:47:11;96394.13;;;10.70;100.00
46724;BME280;32463;48.298;11.620;2022-10-16T03:49:38;96402.41;;;10.74;100.00
46724;BME280;32463;48.298;11.620;2022-10-16T03:52:04;96405.34;;;10.79;100.00
46724;BME280;32463;48.298;11.620;2022-10-16T03:54:30;96409.56;;;10.80;100.00
46724;BME280;32463;48.298;11.620;2022-10-16T03:56:57;96412.66;;;10.84;100.00
46724;BME280;32463;48.298;11.620;2022-10-16T03:59:23;96404.72;;;10.85;100.00
46724;BME280;32463;48.298;11.620;2022-10-16T04:01:50;96407.97;;;10.87;100.00
46724;BME280;32463;48.298;11.620;2022-10-16T04:04:16;96411.53;;;10.86;100.00
46724;BME280;32463;48.298;11.620;2022-10-16T04:06:43;96407.50;;;10.92;100.00
46724;BME280;32463;48.298;11.620;2022-10-16T04:09:09;96396.81;;;10.95;100.00
46724;BME280;32463;48.298;11.620;2022-10-16T04:11:36;96400.88;;;10.97;100.00
46724;BME280;32463;48.298;11.620;2022-10-16T04:14:02;96405.75;;;11.00;100.00
46724;BME280;32463;48.298;11.620;2022-10-16T04:16:29;96400.72;;;10.99;100.00
46724;BME280;32463;48.298;11.620;2022-10-16T04:18:55;96400.06;;;11.05;100.00
46724;BME280;32463;48.298;11.620;2022-10-16T04:21:22;96407.66;;;11.06;100.00
46724;BME280;32463;48.298;11.620;2022-10-16T04:23:48;96401.50;;;11.07;100.00
46724;BME280;32463;48.298;11.620;2022-10-16T04:26:15;96399.56;;;11.09;100.00
46724;BME280;32463;48.298;11.620;2022-10-16T04:28:41;96402.00;;;11.11;100.00
46724;BME280;32463;48.298;11.620;2022-10-16T04:31:08;96401.34;;;11.09;100.00
46724;BME280;32463;48.298;11.620;2022-10-16T04:33:35;96396.97;;;11.09;100.00
46724;BME280;32463;48.298;11.620;2022-10-16T04:36:03;96395.84;;;11.12;100.00
46724;BME280;32463;48.298;11.620;2022-10-16T04:38:30;96395.38;;;11.17;100.00
46724;BME280;32463;48.298;11.620;2022-10-16T04:40:56;96390.03;;;11.18;100.00
46724;BME280;32463;48.298;11.620;2022-10-16T04:43:23;96396.84;;;11.19;100.00
46724;BME280;32463;48.298;11.620;2022-10-16T04:45:50;96398.13;;;11.15;100.00
46724;BME280;32463;48.298;11.620;2022-10-16T04:48:17;96405.59;;;11.18;100.00
46724;BME280;32463;48.298;11.620;2022-10-16T04:50:44;96419.53;;;11.17;100.00
46724;BME280;32463;48.298;11.620;2022-10-16T04:53:10;96414.66;;;11.14;100.00
46724;BME280;32463;48.298;11.620;2022-10-16T04:55:37;96416.28;;;11.15;100.00
46724;BME280;32463;48.298;11.620;2022-10-16T04:58:04;96410.13;;;11.16;100.00
46724;BME280;32463;48.298;11.620;2022-10-16T05:00:30;96412.09;;;11.22;100.00
46724;BME280;32463;48.298;11.620;2022-10-16T05:02:57;96409.34;;;11.24;100.00
46724;BME280;32463;48.298;11.620;2022-10-16T05:05:25;96412.44;;;11.27;100.00
46724;BME280;32463;48.298;11.620;2022-10-16T05:07:51;96408.38;;;11.25;100.00
46724;BME280;32463;48.298;11.620;2022-10-16T05:10:18;96398.16;;;11.23;100.00
46724;BME280;32463;48.298;11.620;2022-10-16T05:12:45;96404.16;;;11.24;100.00
46724;BME280;32463;48.298;11.620;2022-10-16T05:15:12;96406.09;;;11.22;100.00
46724;BME280;32463;48.298;11.620;2022-10-16T05:17:38;96397.50;;;11.21;100.00
46724;BME280;32463;48.298;11.620;2022-10-16T05:20:05;96408.22;;;11.26;100.00
46724;BME280;32463;48.298;11.620;2022-10-16T05:22:31;96399.78;;;11.24;100.00
46724;BME280;32463;48.298;11.620;2022-10-16T05:24:58;96407.72;;;11.23;100.00
46724;BME280;32463;48.298;11.620;2022-10-16T05:27:25;96397.00;;;11.26;100.00
46724;BME280;32463;48.298;11.620;2022-10-16T05:29:51;96402.38;;;11.24;100.00
46724;BME280;32463;48.298;11.620;2022-10-16T05:32:18;96416.16;;;11.25;100.00
46724;BME280;32463;48.298;11.620;2022-10-16T05:34:45;96413.72;;;11.23;100.00
46724;BME280;32463;48.298;11.620;2022-10-16T05:37:12;96425.06;;;11.22;100.00
46724;BME280;32463;48.298;11.620;2022-10-16T05:39:38;96427.66;;;11.22;100.00
46724;BME280;32463;48.298;11.620;2022-10-16T05:42:05;96439.66;;;11.23;100.00
46724;BME280;32463;48.298;11.620;2022-10-16T05:44:32;96432.19;;;11.20;100.00
46724;BME280;32463;48.298;11.620;2022-10-16T05:46:59;96424.41;;;11.20;100.00
46724;BME280;32463;48.298;11.620;2022-10-16T05:49:25;96428.97;;;11.26;100.00
46724;BME280;32463;48.298;11.620;2022-10-16T05:51:51;96439.34;;;11.26;100.00
46724;BME280;32463;48.298;11.620;2022-10-16T05:54:18;96431.25;;;11.29;100.00
46724;BME280;32463;48.298;11.620;2022-10-16T05:56:45;96423.78;;;11.26;100.00
46724;BME280;32463;48.298;11.620;2022-10-16T05:59:11;96420.72;;;11.31;100.00
46724;BME280;32463;48.298;11.620;2022-10-16T06:01:37;96419.09;;;11.30;100.00
46724;BME280;32463;48.298;11.620;2022-10-16T06:04:04;96427.03;;;11.28;100.00
46724;BME280;32463;48.298;11.620;2022-10-16T06:06:30;96427.19;;;11.27;100.00
46724;BME280;32463;48.298;11.620;2022-10-16T06:08:57;96432.53;;;11.25;100.00
46724;BME280;32463;48.298;11.620;2022-10-16T06:11:27;96424.72;;;11.17;100.00
46724;BME280;32463;48.298;11.620;2022-10-16T06:13:56;96427.47;;;11.16;100.00
46724;BME280;32463;48.298;11.620;2022-10-16T06:16:24;96435.09;;;11.17;100.00
46724;BME280;32463;48.298;11.620;2022-10-16T06:18:52;96452.00;;;11.21;100.00
46724;BME280;32463;48.298;11.620;2022-10-16T06:21:23;96461.22;;;11.16;100.00
46724;BME280;32463;48.298;11.620;2022-10-16T06:23:51;96459.91;;;11.11;100.00
46724;BME280;32463;48.298;11.620;2022-10-16T06:26:22;96467.69;;;11.11;100.00
46724;BME280;32463;48.298;11.620;2022-10-16T06:28:49;96460.53;;;11.05;100.00
46724;BME280;32463;48.298;11.620;2022-10-16T06:31:16;96466.19;;;11.01;100.00
46724;BME280;32463;48.298;11.620;2022-10-16T06:33:43;96468.16;;;10.99;100.00
46724;BME280;32463;48.298;11.620;2022-10-16T06:36:15;96472.69;;;10.97;100.00
46724;BME280;32463;48.298;11.620;2022-10-16T06:38:42;96478.53;;;10.99;100.00
46724;BME280;32463;48.298;11.620;2022-10-16T06:41:12;96473.81;;;11.02;100.00
46724;BME280;32463;48.298;11.620;2022-10-16T06:43:39;96486.31;;;11.07;100.00
46724;BME280;32463;48.298;11.620;2022-10-16T06:46:07;96479.34;;;11.07;100.00
46724;BME280;32463;48.298;11.620;2022-10-16T06:48:36;96484.53;;;11.07;100.00
46724;BME280;32463;48.298;11.620;2022-10-16T06:51:06;96489.56;;;11.09;100.00
46724;BME280;32463;48.298;11.620;2022-10-16T06:53:36;96499.94;;;11.09;100.00
46724;BME280;32463;48.298;11.620;2022-10-16T06:56:14;96491.03;;;11.11;100.00
46724;BME280;32463;48.298;11.620;2022-10-16T06:58:42;96492.81;;;11.11;100.00
46724;BME280;32463;48.298;11.620;2022-10-16T07:01:10;96501.25;;;11.13;100.00
46724;BME280;32463;48.298;11.620;2022-10-16T07:03:38;96504.19;;;11.18;100.00
46724;BME280;32463;48.298;11.620;2022-10-16T07:06:07;96505.19;;;11.25;100.00
46724;BME280;32463;48.298;11.620;2022-10-16T07:08:35;96507.16;;;11.39;100.00
46724;BME280;32463;48.298;11.620;2022-10-16T07:11:04;96506.22;;;11.57;100.00
46724;BME280;32463;48.298;11.620;2022-10-16T07:13:33;96512.78;;;11.77;100.00
46724;BME280;32463;48.298;11.620;2022-10-16T07:16:07;96509.19;;;11.94;100.00
46724;BME280;32463;48.298;11.620;2022-10-16T07:18:34;96515.69;;;12.14;100.00
46724;BME280;32463;48.298;11.620;2022-10-16T07:21:11;96520.22;;;12.29;100.00
46724;BME280;32463;48.298;11.620;2022-10-16T07:23:39;96515.00;;;12.45;100.00
46724;BME280;32463;48.298;11.620;2022-10-16T07:26:06;96510.56;;;12.62;100.00
46724;BME280;32463;48.298;11.620;2022-10-16T07:28:33;96516.22;;;12.81;100.00
46724;BME280;32463;48.298;11.620;2022-10-16T07:31:13;96521.97;;;13.08;100.00
46724;BME280;32463;48.298;11.620;2022-10-16T07:33:40;96522.19;;;13.37;100.00
46724;BME280;32463;48.298;11.620;2022-10-16T07:36:08;96523.69;;;13.55;100.00
46724;BME280;32463;48.298;11.620;2022-10-16T07:38:34;96529.50;;;13.65;100.00
46724;BME280;32463;48.298;11.620;2022-10-16T07:41:06;96536.47;;;13.72;100.00
46724;BME280;32463;48.298;11.620;2022-10-16T07:43:33;96531.81;;;13.82;100.00
46724;BME280;32463;48.298;11.620;2022-10-16T07:46:00;96522.31;;;13.90;100.00
46724;BME280;32463;48.298;11.620;2022-10-16T07:48:28;96536.66;;;14.08;100.00
46724;BME280;32463;48.298;11.620;2022-10-16T07:51:02;96530.63;;;14.31;100.00
46724;BME280;32463;48.298;11.620;2022-10-16T07:53:29;96540.22;;;14.53;100.00
46724;BME280;32463;48.298;11.620;2022-10-16T07:56:04;96539.97;;;14.77;100.00
46724;BME280;32463;48.298;11.620;2022-10-16T07:58:31;96545.25;;;14.99;100.00
46724;BME280;32463;48.298;11.620;2022-10-16T08:00:58;96547.19;;;14.90;100.00
46724;BME280;32463;48.298;11.620;2022-10-16T08:03:25;96551.22;;;15.22;100.00
46724;BME280;32463;48.298;11.620;2022-10-16T08:05:52;96550.09;;;15.31;100.00
46724;BME280;32463;48.298;11.620;2022-10-16T08:08:18;96553.88;;;15.43;100.00
46724;BME280;32463;48.298;11.620;2022-10-16T08:10:45;96559.00;;;15.52;100.00
46724;BME280;32463;48.298;11.620;2022-10-16T08:13:12;96551.56;;;15.70;100.00
46724;BME280;32463;48.298;11.620;2022-10-16T08:15:40;96550.59;;;15.92;100.00
46724;BME280;32463;48.298;11.620;2022-10-16T08:18:07;96549.00;;;16.12;100.00
46724;BME280;32463;48.298;11.620;2022-10-16T08:20:34;96554.81;;;16.36;100.00
46724;BME280;32463;48.298;11.620;2022-10-16T08:23:00;96554.47;;;16.67;100.00
46724;BME280;32463;48.298;11.620;2022-10-16T08:25:27;96558.44;;;16.91;100.00
46724;BME280;32463;48.298;11.620;2022-10-16T08:27:54;96561.00;;;17.12;100.00
46724;BME280;32463;48.298;11.620;2022-10-16T08:30:22;96550.69;;;17.51;100.00
46724;BME280;32463;48.298;11.620;2022-10-16T08:32:49;96558.84;;;17.76;100.00
46724;BME280;32463;48.298;11.620;2022-10-16T08:35:16;96558.94;;;18.03;100.00
46724;BME280;32463;48.298;11.620;2022-10-16T08:37:43;96562.16;;;18.38;100.00
46724;BME280;32463;48.298;11.620;2022-10-16T08:40:25;96562.19;;;18.71;100.00
46724;BME280;32463;48.298;11.620;2022-10-16T08:45:56;96568.63;;;18.95;100.00
46724;BME280;32463;48.298;11.620;2022-10-16T08:51:02;96576.91;;;19.63;100.00
46724;BME280;32463;48.298;11.620;2022-10-16T08:53:36;96567.53;;;19.80;97.93
46724;BME280;32463;48.298;11.620;2022-10-16T08:56:04;96572.13;;;20.23;95.24
46724;BME280;32463;48.298;11.620;2022-10-16T08:58:31;96578.78;;;20.57;90.75
46724;BME280;32463;48.298;11.620;2022-10-16T09:01:03;96580.16;;;20.41;86.82
46724;BME280;32463;48.298;11.620;2022-10-16T09:03:56;96589.16;;;20.51;84.25
46724;BME280;32463;48.298;11.620;2022-10-16T09:07:04;96577.31;;;20.85;82.22
46724;BME280;32463;48.298;11.620;2022-10-16T09:12:40;96569.41;;;21.47;79.27
46724;BME280;32463;48.298;11.620;2022-10-16T09:18:02;96573.06;;;21.94;69.02
46724;BME280;32463;48.298;11.620;2022-10-16T09:20:49;96566.31;;;22.40;67.36
46724;BME280;32463;48.298;11.620;2022-10-16T09:25:50;96570.59;;;22.64;64.36
46724;BME280;32463;48.298;11.620;2022-10-16T09:28:18;96574.78;;;22.95;63.36
46724;BME280;32463;48.298;11.620;2022-10-16T09:30:46;96570.28;;;22.96;63.01
46724;BME280;32463;48.298;11.620;2022-10-16T09:33:14;96568.53;;;22.66;64.25
46724;BME280;32463;48.298;11.620;2022-10-16T09:35:44;96571.78;;;23.15;62.72
46724;BME280;32463;48.298;11.620;2022-10-16T09:38:31;96574.97;;;23.40;63.28
46724;BME280;32463;48.298;11.620;2022-10-16T09:41:00;96584.38;;;23.60;61.37
46724;BME280;32463;48.298;11.620;2022-10-16T09:43:41;96592.88;;;23.62;60.47
46724;BME280;32463;48.298;11.620;2022-10-16T09:46:29;96596.13;;;24.21;60.36
46724;BME280;32463;48.298;11.620;2022-10-16T09:49:00;96600.78;;;24.13;58.34
46724;BME280;32463;48.298;11.620;2022-10-16T09:51:33;96601.84;;;24.74;57.44
46724;BME280;32463;48.298;11.620;2022-10-16T09:56:37;96596.50;;;25.46;54.22
46724;BME280;32463;48.298;11.620;2022-10-16T09:59:12;96593.19;;;25.56;53.63
46724;BME280;32463;48.298;11.620;2022-10-16T10:02:03;96596.97;;;25.82;56.69
46724;BME280;32463;48.298;11.620;2022-10-16T10:04:57;96581.66;;;26.43;52.58
46724;BME280;32463;48.298;11.620;2022-10-16T10:07:30;96574.84;;;26.25;50.42
46724;BME280;32463;48.298;11.620;2022-10-16T10:09:58;96582.38;;;26.97;49.37
46724;BME280;32463;48.298;11.620;2022-10-16T10:12:27;96586.88;;;26.97;48.22
46724;BME280;32463;48.298;11.620;2022-10-16T10:14:57;96577.84;;;26.98;47.43
46724;BME280;32463;48.298;11.620;2022-10-16T10:17:26;96573.94;;;27.63;47.41
46724;BME280;32463;48.298;11.620;2022-10-16T10:20:01;96586.53;;;27.77;45.33
46724;BME280;32463;48.298;11.620;2022-10-16T10:22:43;96585.63;;;28.34;45.27
46724;BME280;32463;48.298;11.620;2022-10-16T10:36:05;96575.63;;;29.57;39.98
46724;BME280;32463;48.298;11.620;2022-10-16T10:46:51;96571.34;;;29.61;39.09
46724;BME280;32463;48.298;11.620;2022-10-16T11:01:04;96569.22;;;30.51;36.52
46724;BME280;32463;48.298;11.620;2022-10-16T11:03:49;96567.53;;;31.47;35.22
46724;BME280;32463;48.298;11.620;2022-10-16T11:06:43;96567.88;;;31.83;31.99
46724;BME280;32463;48.298;11.620;2022-10-16T11:09:36;96559.88;;;30.83;31.80
46724;BME280;32463;48.298;11.620;2022-10-16T11:15:12;96573.03;;;29.31;34.18
46724;BME280;32463;48.298;11.620;2022-10-16T11:18:13;96559.97;;;29.09;34.67
46724;BME280;32463;48.298;11.620;2022-10-16T11:20:43;96562.56;;;30.09;33.92
46724;BME280;32463;48.298;11.620;2022-10-16T11:25:40;96571.13;;;29.42;34.48
46724;BME280;32463;48.298;11.620;2022-10-16T11:28:19;96557.31;;;30.67;32.13
46724;BME280;32463;48.298;11.620;2022-10-16T11:33:37;96571.88;;;30.56;33.26
46724;BME280;32463;48.298;11.620;2022-10-16T11:39:08;96578.81;;;29.59;33.19
46724;BME280;32463;48.298;11.620;2022-10-16T11:42:03;96569.59;;;29.90;33.57
46724;BME280;32463;48.298;11.620;2022-10-16T11:50:13;96565.16;;;31.64;30.92
46724;BME280;32463;48.298;11.620;2022-10-16T11:52:53;96561.66;;;32.44;29.64
46724;BME280;32463;48.298;11.620;2022-10-16T11:55:24;96561.53;;;32.17;30.01
46724;BME280;32463;48.298;11.620;2022-10-16T12:00:40;96558.44;;;33.81;27.60
46724;BME280;32463;48.298;11.620;2022-10-16T12:08:52;96556.28;;;33.09;28.11
46724;BME280;32463;48.298;11.620;2022-10-16T12:11:32;96556.16;;;34.46;26.99
46724;BME280;32463;48.298;11.620;2022-10-16T12:14:05;96549.56;;;33.80;27.43
46724;BME280;32463;48.298;11.620;2022-10-16T12:16:32;96546.94;;;35.23;26.76
46724;BME280;32463;48.298;11.620;2022-10-16T12:19:14;96548.31;;;35.42;25.99
46724;BME280;32463;48.298;11.620;2022-10-16T12:21:41;96551.47;;;35.36;25.97
46724;BME280;32463;48.298;11.620;2022-10-16T12:26:53;96545.50;;;35.25;25.81
46724;BME280;32463;48.298;11.620;2022-10-16T12:29:34;96547.81;;;35.97;25.69
46724;BME280;32463;48.298;11.620;2022-10-16T12:32:03;96543.22;;;36.06;25.85
46724;BME280;32463;48.298;11.620;2022-10-16T12:34:39;96545.47;;;35.08;25.93
46724;BME280;32463;48.298;11.620;2022-10-16T12:37:29;96542.09;;;34.13;26.14
46724;BME280;32463;48.298;11.620;2022-10-16T12:39:58;96550.16;;;31.44;30.09
46724;BME280;32463;48.298;11.620;2022-10-16T12:44:55;96542.94;;;29.70;33.27
46724;BME280;32463;48.298;11.620;2022-10-16T12:47:49;96540.44;;;31.48;31.73
46724;BME280;32463;48.298;11.620;2022-10-16T12:50:37;96543.19;;;33.49;28.09
46724;BME280;32463;48.298;11.620;2022-10-16T12:53:25;96538.84;;;34.25;27.86
46724;BME280;32463;48.298;11.620;2022-10-16T12:56:20;96535.31;;;35.53;26.08
46724;BME280;32463;48.298;11.620;2022-10-16T12:58:56;96535.44;;;37.12;25.03
46724;BME280;32463;48.298;11.620;2022-10-16T13:26:46;96558.06;;;37.46;23.18
46724;BME280;32463;48.298;11.620;2022-10-16T13:29:15;96549.25;;;36.55;23.81
46724;BME280;32463;48.298;11.620;2022-10-16T13:31:42;96547.50;;;35.99;25.73
46724;BME280;32463;48.298;11.620;2022-10-16T13:34:27;96554.47;;;36.17;24.62
46724;BME280;32463;48.298;11.620;2022-10-16T13:36:54;96552.63;;;34.82;25.82
46724;BME280;32463;48.298;11.620;2022-10-16T13:39:29;96553.78;;;34.98;25.61
46724;BME280;32463;48.298;11.620;2022-10-16T13:42:21;96562.94;;;34.43;26.48
46724;BME280;32463;48.298;11.620;2022-10-16T13:44:51;96566.44;;;33.94;26.64
46724;BME280;32463;48.298;11.620;2022-10-16T13:49:58;96574.03;;;33.24;28.09
46724;BME280;32463;48.298;11.620;2022-10-16T13:52:26;96579.97;;;33.07;28.56
46724;BME280;32463;48.298;11.620;2022-10-16T13:54:52;96580.22;;;32.59;29.29
46724;BME280;32463;48.298;11.620;2022-10-16T13:57:22;96577.78;;;31.64;30.49
46724;BME280;32463;48.298;11.620;2022-10-16T13:59:49;96579.44;;;31.12;31.60
46724;BME280;32463;48.298;11.620;2022-10-16T14:02:26;96580.16;;;30.15;32.07
46724;BME280;32463;48.298;11.620;2022-10-16T14:04:53;96581.06;;;29.06;34.27
46724;BME280;32463;48.298;11.620;2022-10-16T14:07:29;96579.50;;;28.34;35.38
46724;BME280;32463;48.298;11.620;2022-10-16T14:10:00;96576.63;;;27.68;37.00
46724;BME280;32463;48.298;11.620;2022-10-16T14:12:27;96585.19;;;27.28;37.18
46724;BME280;32463;48.298;11.620;2022-10-16T14:14:55;96573.44;;;26.44;38.42
46724;BME280;32463;48.298;11.620;2022-10-16T14:17:27;96587.50;;;25.91;39.88
46724;BME280;32463;48.298;11.620;2022-10-16T14:19:57;96589.19;;;25.75;40.39
46724;BME280;32463;48.298;11.620;2022-10-16T14:22:29;96584.50;;;25.22;41.40
46724;BME280;32463;48.298;11.620;2022-10-16T14:24:56;96585.78;;;24.98;42.02
46724;BME280;32463;48.298;11.620;2022-10-16T14:30:15;96577.97;;;24.74;42.99
46724;BME280;32463;48.298;11.620;2022-10-16T14:32:59;96579.50;;;24.70;42.34
46724;BME280;32463;48.298;11.620;2022-10-16T14:35:35;96581.25;;;24.48;43.54
46724;BME280;32463;48.298;11.620;2022-10-16T14:38:03;96577.22;;;24.29;43.73
46724;BME280;32463;48.298;11.620;2022-10-16T14:40:33;96579.34;;;24.15;44.71
46724;BME280;32463;48.298;11.620;2022-10-16T14:43:01;96577.13;;;23.95;46.56
46724;BME280;32463;48.298;11.620;2022-10-16T14:45:31;96582.72;;;23.82;46.88
46724;BME280;32463;48.298;11.620;2022-10-16T14:48:02;96585.25;;;23.77;47.11
46724;BME280;32463;48.298;11.620;2022-10-16T14:50:30;96584.84;;;23.57;47.44
46724;BME280;32463;48.298;11.620;2022-10-16T14:52:56;96590.72;;;23.47;48.38
46724;BME280;32463;48.298;11.620;2022-10-16T14:55:24;96594.53;;;23.39;48.56
46724;BME280;32463;48.298;11.620;2022-10-16T14:57:51;96596.38;;;23.27;49.53
46724;BME280;32463;48.298;11.620;2022-10-16T15:00:21;96596.16;;;23.17;48.99